sensor_id;sensor_type;location;lat;lon;timestamp;P1;durP1;ratioP1;P2;durP2;ratioP2
54921;SDS011;40824;45.116;21.296;2024-02-26T00:02:07;13.63;;;12.10;;
54921;SDS011;40824;45.116;21.296;2024-02-26T00:04:33;13.48;;;11.70;;
54921;SDS011;40824;45.116;21.296;2024-02-26T00:06:59;15.70;;;11.73;;
54921;SDS011;40824;45.116;21.296;2024-02-26T00:09:25;13.25;;;11.63;;
54921;SDS011;40824;45.116;21.296;2024-02-26T00:11:51;19.90;;;12.23;;
54921;SDS011;40824;45.116;21.296;2024-02-26T00:14:17;14.27;;;11.90;;
54921;SDS011;40824;45.116;21.296;2024-02-26T00:16:43;14.32;;;11.90;;
54921;SDS011;40824;45.116;21.296;2024-02-26T00:19:14;13.75;;;12.27;;
54921;SDS011;40824;45.116;21.296;2024-02-26T00:21:41;16.00;;;12.82;;
54921;SDS011;40824;45.116;21.296;2024-02-26T00:24:07;13.95;;;11.48;;
54921;SDS011;40824;45.116;21.296;2024-02-26T00:26:33;14.60;;;12.77;;
54921;SDS011;40824;45.116;21.296;2024-02-26T00:29:00;14.00;;;12.00;;
54921;SDS011;40824;45.116;21.296;2024-02-26T00:31:26;17.13;;;12.65;;
54921;SDS011;40824;45.116;21.296;2024-02-26T00:33:52;15.38;;;12.68;;
54921;SDS011;40824;45.116;21.296;2024-02-26T00:36:18;15.02;;;12.27;;
54921;SDS011;40824;45.116;21.296;2024-02-26T00:38:44;14.38;;;12.90;;
54921;SDS011;40824;45.116;21.296;2024-02-26T00:41:15;13.93;;;11.68;;
54921;SDS011;40824;45.116;21.296;2024-02-26T00:43:41;16.85;;;12.43;;
54921;SDS011;40824;45.116;21.296;2024-02-26T00:46:08;15.45;;;13.32;;
54921;SDS011;40824;45.116;21.296;2024-02-26T00:48:34;14.65;;;12.57;;
54921;SDS011;40824;45.116;21.296;2024-02-26T00:51:00;13.88;;;12.35;;
54921;SDS011;40824;45.116;21.296;2024-02-26T00:53:26;13.48;;;12.07;;
54921;SDS011;40824;45.116;21.296;2024-02-26T00:55:53;16.17;;;13.63;;
54921;SDS011;40824;45.116;21.296;2024-02-26T00:58:21;16.42;;;13.88;;
54921;SDS011;40824;45.116;21.296;2024-02-26T01:00:47;18.63;;;13.52;;
54921;SDS011;40824;45.116;21.296;2024-02-26T01:03:13;16.50;;;13.50;;
54921;SDS011;40824;45.116;21.296;2024-02-26T01:05:39;15.23;;;13.48;;
54921;SDS011;40824;45.116;21.296;2024-02-26T01:08:05;15.90;;;13.70;;
54921;SDS011;40824;45.116;21.296;2024-02-26T01:10:31;16.73;;;13.43;;
54921;SDS011;40824;45.116;21.296;2024-02-26T01:13:00;16.80;;;15.10;;
54921;SDS011;40824;45.116;21.296;2024-02-26T01:15:26;16.38;;;14.27;;
54921;SDS011;40824;45.116;21.296;2024-02-26T01:17:53;16.98;;;14.70;;
54921;SDS011;40824;45.116;21.296;2024-02-26T01:20:19;16.92;;;14.63;;
54921;SDS011;40824;45.116;21.296;2024-02-26T01:22:46;16.67;;;14.82;;
54921;SDS011;40824;45.116;21.296;2024-02-26T01:25:12;18.67;;;14.60;;
54921;SDS011;40824;45.116;21.296;2024-02-26T01:27:38;17.40;;;15.00;;
54921;SDS011;40824;45.116;21.296;2024-02-26T01:30:07;20.08;;;16.50;;
54921;SDS011;40824;45.116;21.296;2024-02-26T01:32:34;19.75;;;15.55;;
54921;SDS011;40824;45.116;21.296;2024-02-26T01:35:01;17.83;;;15.45;;
54921;SDS011;40824;45.116;21.296;2024-02-26T01:37:32;19.60;;;15.32;;
54921;SDS011;40824;45.116;21.296;2024-02-26T01:39:58;18.52;;;15.63;;
54921;SDS011;40824;45.116;21.296;2024-02-26T01:42:25;21.13;;;15.82;;
54921;SDS011;40824;45.116;21.296;2024-02-26T01:44:51;20.17;;;15.32;;
54921;SDS011;40824;45.116;21.296;2024-02-26T01:47:19;19.00;;;16.13;;
54921;SDS011;40824;45.116;21.296;2024-02-26T01:49:45;18.80;;;15.20;;
54921;SDS011;40824;45.116;21.296;2024-02-26T01:52:12;19.92;;;15.60;;
54921;SDS011;40824;45.116;21.296;2024-02-26T01:54:38;19.05;;;15.43;;
54921;SDS011;40824;45.116;21.296;2024-02-26T01:57:05;22.90;;;16.08;;
54921;SDS011;40824;45.116;21.296;2024-02-26T01:59:32;19.63;;;15.13;;
54921;SDS011;40824;45.116;21.296;2024-02-26T02:01:59;18.55;;;15.18;;
54921;SDS011;40824;45.116;21.296;2024-02-26T02:04:27;17.92;;;15.65;;
54921;SDS011;40824;45.116;21.296;2024-02-26T02:06:53;17.40;;;14.35;;
54921;SDS011;40824;45.116;21.296;2024-02-26T02:09:20;17.42;;;14.45;;
54921;SDS011;40824;45.116;21.296;2024-02-26T02:11:48;15.77;;;13.88;;
54921;SDS011;40824;45.116;21.296;2024-02-26T02:14:14;20.52;;;14.95;;
54921;SDS011;40824;45.116;21.296;2024-02-26T02:16:40;18.65;;;15.32;;
54921;SDS011;40824;45.116;21.296;2024-02-26T02:19:09;21.80;;;15.80;;
54921;SDS011;40824;45.116;21.296;2024-02-26T02:21:35;18.75;;;15.20;;
54921;SDS011;40824;45.116;21.296;2024-02-26T02:24:01;16.63;;;14.55;;
54921;SDS011;40824;45.116;21.296;2024-02-26T02:26:27;18.65;;;14.80;;
54921;SDS011;40824;45.116;21.296;2024-02-26T02:28:56;18.65;;;14.48;;
54921;SDS011;40824;45.116;21.296;2024-02-26T02:31:22;17.33;;;14.00;;
54921;SDS011;40824;45.116;21.296;2024-02-26T02:33:48;17.92;;;14.65;;
54921;SDS011;40824;45.116;21.296;2024-02-26T02:36:14;17.48;;;14.35;;
54921;SDS011;40824;45.116;21.296;2024-02-26T02:38:50;16.95;;;14.00;;
54921;SDS011;40824;45.116;21.296;2024-02-26T02:41:16;20.27;;;14.95;;
54921;SDS011;40824;45.116;21.296;2024-02-26T02:43:45;17.73;;;14.23;;
54921;SDS011;40824;45.116;21.296;2024-02-26T02:46:11;19.90;;;14.38;;
54921;SDS011;40824;45.116;21.296;2024-02-26T02:48:37;16.73;;;14.23;;
54921;SDS011;40824;45.116;21.296;2024-02-26T02:51:06;17.52;;;13.57;;
54921;SDS011;40824;45.116;21.296;2024-02-26T02:53:32;17.48;;;13.43;;
54921;SDS011;40824;45.116;21.296;2024-02-26T02:55:58;16.77;;;13.13;;
54921;SDS011;40824;45.116;21.296;2024-02-26T02:58:24;16.15;;;13.55;;
54921;SDS011;40824;45.116;21.296;2024-02-26T03:00:50;16.45;;;13.45;;
54921;SDS011;40824;45.116;21.296;2024-02-26T03:03:16;18.73;;;13.60;;
54921;SDS011;40824;45.116;21.296;2024-02-26T03:05:42;17.52;;;13.40;;
54921;SDS011;40824;45.116;21.296;2024-02-26T03:08:09;16.65;;;13.77;;
54921;SDS011;40824;45.116;21.296;2024-02-26T03:10:35;17.02;;;13.90;;
54921;SDS011;40824;45.116;21.296;2024-02-26T03:13:01;15.30;;;13.13;;
54921;SDS011;40824;45.116;21.296;2024-02-26T03:15:27;15.88;;;14.10;;
54921;SDS011;40824;45.116;21.296;2024-02-26T03:17:54;15.93;;;12.55;;
54921;SDS011;40824;45.116;21.296;2024-02-26T03:20:22;16.15;;;13.43;;
54921;SDS011;40824;45.116;21.296;2024-02-26T03:22:48;14.32;;;12.73;;
54921;SDS011;40824;45.116;21.296;2024-02-26T03:25:14;14.70;;;12.43;;
54921;SDS011;40824;45.116;21.296;2024-02-26T03:27:43;17.02;;;12.52;;
54921;SDS011;40824;45.116;21.296;2024-02-26T03:30:11;15.90;;;12.98;;
54921;SDS011;40824;45.116;21.296;2024-02-26T03:32:38;16.23;;;12.55;;
54921;SDS011;40824;45.116;21.296;2024-02-26T03:35:04;21.58;;;13.25;;
54921;SDS011;40824;45.116;21.296;2024-02-26T03:37:33;16.08;;;12.98;;
54921;SDS011;40824;45.116;21.296;2024-02-26T03:39:59;15.52;;;12.93;;
54921;SDS011;40824;45.116;21.296;2024-02-26T03:42:26;14.85;;;12.55;;
54921;SDS011;40824;45.116;21.296;2024-02-26T03:44:55;15.32;;;12.70;;
54921;SDS011;40824;45.116;21.296;2024-02-26T03:47:21;14.95;;;11.57;;
54921;SDS011;40824;45.116;21.296;2024-02-26T03:49:47;15.70;;;13.23;;
54921;SDS011;40824;45.116;21.296;2024-02-26T03:52:13;14.88;;;12.50;;
54921;SDS011;40824;45.116;21.296;2024-02-26T03:54:40;15.40;;;12.93;;
54921;SDS011;40824;45.116;21.296;2024-02-26T03:57:06;14.60;;;13.00;;
54921;SDS011;40824;45.116;21.296;2024-02-26T03:59:32;17.42;;;12.38;;
54921;SDS011;40824;45.116;21.296;2024-02-26T04:02:01;16.92;;;13.68;;
54921;SDS011;40824;45.116;21.296;2024-02-26T04:04:27;16.50;;;12.60;;
54921;SDS011;40824;45.116;21.296;2024-02-26T04:06:53;17.00;;;12.30;;
54921;SDS011;40824;45.116;21.296;2024-02-26T04:09:19;15.55;;;12.95;;
54921;SDS011;40824;45.116;21.296;2024-02-26T04:11:45;15.82;;;11.93;;
54921;SDS011;40824;45.116;21.296;2024-02-26T04:14:11;14.40;;;12.27;;
54921;SDS011;40824;45.116;21.296;2024-02-26T04:16:38;14.25;;;12.63;;
54921;SDS011;40824;45.116;21.296;2024-02-26T04:19:04;15.85;;;12.18;;
54921;SDS011;40824;45.116;21.296;2024-02-26T04:21:35;14.95;;;11.88;;
54921;SDS011;40824;45.116;21.296;2024-02-26T04:24:01;16.95;;;13.52;;
54921;SDS011;40824;45.116;21.296;2024-02-26T04:26:28;21.90;;;11.85;;
54921;SDS011;40824;45.116;21.296;2024-02-26T04:28:54;14.07;;;11.80;;
54921;SDS011;40824;45.116;21.296;2024-02-26T04:31:20;15.18;;;12.48;;
54921;SDS011;40824;45.116;21.296;2024-02-26T04:33:46;18.50;;;12.85;;
54921;SDS011;40824;45.116;21.296;2024-02-26T04:36:13;16.40;;;12.32;;
54921;SDS011;40824;45.116;21.296;2024-02-26T04:38:45;15.65;;;12.88;;
54921;SDS011;40824;45.116;21.296;2024-02-26T04:41:11;15.20;;;12.05;;
54921;SDS011;40824;45.116;21.296;2024-02-26T04:43:37;17.80;;;12.00;;
54921;SDS011;40824;45.116;21.296;2024-02-26T04:46:10;15.88;;;12.40;;
54921;SDS011;40824;45.116;21.296;2024-02-26T04:48:36;14.80;;;11.52;;
54921;SDS011;40824;45.116;21.296;2024-02-26T04:51:03;13.60;;;11.30;;
54921;SDS011;40824;45.116;21.296;2024-02-26T04:53:29;15.68;;;12.93;;
54921;SDS011;40824;45.116;21.296;2024-02-26T04:55:55;14.10;;;11.98;;
54921;SDS011;40824;45.116;21.296;2024-02-26T04:58:22;18.10;;;14.10;;
54921;SDS011;40824;45.116;21.296;2024-02-26T05:00:48;15.02;;;13.05;;
54921;SDS011;40824;45.116;21.296;2024-02-26T05:03:14;15.85;;;12.82;;
54921;SDS011;40824;45.116;21.296;2024-02-26T05:05:45;18.05;;;13.25;;
54921;SDS011;40824;45.116;21.296;2024-02-26T05:08:12;15.13;;;12.65;;
54921;SDS011;40824;45.116;21.296;2024-02-26T05:10:38;16.67;;;13.65;;
54921;SDS011;40824;45.116;21.296;2024-02-26T05:13:08;23.50;;;14.20;;
54921;SDS011;40824;45.116;21.296;2024-02-26T05:15:35;16.90;;;13.48;;
54921;SDS011;40824;45.116;21.296;2024-02-26T05:18:01;15.50;;;12.70;;
54921;SDS011;40824;45.116;21.296;2024-02-26T05:20:27;16.20;;;13.07;;
54921;SDS011;40824;45.116;21.296;2024-02-26T05:22:54;14.95;;;13.35;;
54921;SDS011;40824;45.116;21.296;2024-02-26T05:25:20;15.88;;;12.95;;
54921;SDS011;40824;45.116;21.296;2024-02-26T05:27:46;17.33;;;14.52;;
54921;SDS011;40824;45.116;21.296;2024-02-26T05:30:12;15.73;;;14.00;;
54921;SDS011;40824;45.116;21.296;2024-02-26T05:32:38;17.83;;;14.15;;
54921;SDS011;40824;45.116;21.296;2024-02-26T05:35:04;23.00;;;14.30;;
54921;SDS011;40824;45.116;21.296;2024-02-26T05:37:31;17.45;;;14.45;;
54921;SDS011;40824;45.116;21.296;2024-02-26T05:39:59;17.05;;;14.00;;
54921;SDS011;40824;45.116;21.296;2024-02-26T05:42:25;20.27;;;15.55;;
54921;SDS011;40824;45.116;21.296;2024-02-26T05:44:51;18.27;;;15.35;;
54921;SDS011;40824;45.116;21.296;2024-02-26T05:47:18;16.50;;;14.38;;
54921;SDS011;40824;45.116;21.296;2024-02-26T05:49:44;18.52;;;15.50;;
54921;SDS011;40824;45.116;21.296;2024-02-26T05:52:17;20.95;;;16.77;;
54921;SDS011;40824;45.116;21.296;2024-02-26T05:54:46;18.65;;;15.02;;
54921;SDS011;40824;45.116;21.296;2024-02-26T05:57:14;20.05;;;14.18;;
54921;SDS011;40824;45.116;21.296;2024-02-26T05:59:40;16.25;;;13.45;;
54921;SDS011;40824;45.116;21.296;2024-02-26T06:02:07;16.80;;;13.30;;
54921;SDS011;40824;45.116;21.296;2024-02-26T06:04:35;20.52;;;14.90;;
54921;SDS011;40824;45.116;21.296;2024-02-26T06:07:01;17.55;;;13.65;;
54921;SDS011;40824;45.116;21.296;2024-02-26T06:09:27;16.52;;;14.05;;
54921;SDS011;40824;45.116;21.296;2024-02-26T06:11:53;18.75;;;14.50;;
54921;SDS011;40824;45.116;21.296;2024-02-26T06:14:22;17.73;;;13.95;;
54921;SDS011;40824;45.116;21.296;2024-02-26T06:16:48;16.50;;;13.73;;
54921;SDS011;40824;45.116;21.296;2024-02-26T06:19:14;19.88;;;13.55;;
54921;SDS011;40824;45.116;21.296;2024-02-26T06:21:40;16.90;;;12.50;;
54921;SDS011;40824;45.116;21.296;2024-02-26T06:24:06;16.98;;;13.88;;
54921;SDS011;40824;45.116;21.296;2024-02-26T06:26:37;16.30;;;12.82;;
54921;SDS011;40824;45.116;21.296;2024-02-26T06:29:04;15.25;;;13.23;;
54921;SDS011;40824;45.116;21.296;2024-02-26T06:31:30;18.50;;;14.45;;
54921;SDS011;40824;45.116;21.296;2024-02-26T06:34:01;17.60;;;13.43;;
54921;SDS011;40824;45.116;21.296;2024-02-26T06:36:28;18.52;;;13.23;;
54921;SDS011;40824;45.116;21.296;2024-02-26T06:38:56;17.10;;;13.30;;
54921;SDS011;40824;45.116;21.296;2024-02-26T06:41:22;15.80;;;13.75;;
54921;SDS011;40824;45.116;21.296;2024-02-26T06:43:55;20.13;;;14.95;;
54921;SDS011;40824;45.116;21.296;2024-02-26T06:46:21;17.52;;;13.98;;
54921;SDS011;40824;45.116;21.296;2024-02-26T06:48:51;18.65;;;15.23;;
54921;SDS011;40824;45.116;21.296;2024-02-26T06:51:17;16.15;;;13.23;;
54921;SDS011;40824;45.116;21.296;2024-02-26T06:53:43;18.42;;;13.93;;
54921;SDS011;40824;45.116;21.296;2024-02-26T06:56:09;18.05;;;13.52;;
54921;SDS011;40824;45.116;21.296;2024-02-26T06:58:35;19.27;;;14.57;;
54921;SDS011;40824;45.116;21.296;2024-02-26T07:01:01;18.88;;;14.85;;
54921;SDS011;40824;45.116;21.296;2024-02-26T07:03:27;19.77;;;14.45;;
54921;SDS011;40824;45.116;21.296;2024-02-26T07:05:55;16.08;;;13.82;;
54921;SDS011;40824;45.116;21.296;2024-02-26T07:08:22;19.60;;;14.48;;
54921;SDS011;40824;45.116;21.296;2024-02-26T07:10:48;15.52;;;13.60;;
54921;SDS011;40824;45.116;21.296;2024-02-26T07:13:14;16.00;;;13.63;;
54921;SDS011;40824;45.116;21.296;2024-02-26T07:15:40;18.00;;;12.82;;
54921;SDS011;40824;45.116;21.296;2024-02-26T07:18:06;15.90;;;12.30;;
54921;SDS011;40824;45.116;21.296;2024-02-26T07:20:32;15.82;;;12.65;;
54921;SDS011;40824;45.116;21.296;2024-02-26T07:22:58;19.38;;;12.43;;
54921;SDS011;40824;45.116;21.296;2024-02-26T07:25:24;16.90;;;12.45;;
54921;SDS011;40824;45.116;21.296;2024-02-26T07:27:50;14.75;;;12.05;;
54921;SDS011;40824;45.116;21.296;2024-02-26T07:30:19;15.32;;;11.75;;
54921;SDS011;40824;45.116;21.296;2024-02-26T07:32:45;15.68;;;11.73;;
54921;SDS011;40824;45.116;21.296;2024-02-26T07:35:11;13.45;;;12.05;;
54921;SDS011;40824;45.116;21.296;2024-02-26T07:37:37;15.52;;;11.98;;
54921;SDS011;40824;45.116;21.296;2024-02-26T07:40:04;16.60;;;12.60;;
54921;SDS011;40824;45.116;21.296;2024-02-26T07:42:30;14.00;;;10.63;;
54921;SDS011;40824;45.116;21.296;2024-02-26T07:44:57;13.00;;;10.93;;
54921;SDS011;40824;45.116;21.296;2024-02-26T07:47:23;13.82;;;10.23;;
54921;SDS011;40824;45.116;21.296;2024-02-26T07:49:49;13.50;;;10.20;;
54921;SDS011;40824;45.116;21.296;2024-02-26T07:52:15;11.52;;;10.27;;
54921;SDS011;40824;45.116;21.296;2024-02-26T07:54:41;14.20;;;10.68;;
54921;SDS011;40824;45.116;21.296;2024-02-26T07:57:07;11.55;;;9.38;;
54921;SDS011;40824;45.116;21.296;2024-02-26T07:59:33;12.90;;;10.02;;
54921;SDS011;40824;45.116;21.296;2024-02-26T08:02:00;11.65;;;9.70;;
54921;SDS011;40824;45.116;21.296;2024-02-26T08:04:28;11.40;;;10.13;;
54921;SDS011;40824;45.116;21.296;2024-02-26T08:06:54;14.27;;;9.85;;
54921;SDS011;40824;45.116;21.296;2024-02-26T08:09:20;11.00;;;9.20;;
54921;SDS011;40824;45.116;21.296;2024-02-26T08:11:46;11.15;;;9.90;;
54921;SDS011;40824;45.116;21.296;2024-02-26T08:14:12;14.07;;;10.15;;
54921;SDS011;40824;45.116;21.296;2024-02-26T08:16:38;11.80;;;9.85;;
54921;SDS011;40824;45.116;21.296;2024-02-26T08:19:05;11.38;;;9.63;;
54921;SDS011;40824;45.116;21.296;2024-02-26T08:21:31;10.65;;;9.55;;
54921;SDS011;40824;45.116;21.296;2024-02-26T08:23:57;11.30;;;9.65;;
54921;SDS011;40824;45.116;21.296;2024-02-26T08:26:23;12.40;;;9.65;;
54921;SDS011;40824;45.116;21.296;2024-02-26T08:28:49;13.32;;;10.70;;
54921;SDS011;40824;45.116;21.296;2024-02-26T08:31:17;10.98;;;9.00;;
54921;SDS011;40824;45.116;21.296;2024-02-26T08:33:44;13.52;;;10.23;;
54921;SDS011;40824;45.116;21.296;2024-02-26T08:36:11;14.07;;;9.98;;
54921;SDS011;40824;45.116;21.296;2024-02-26T08:38:37;14.52;;;9.10;;
54921;SDS011;40824;45.116;21.296;2024-02-26T08:41:04;10.13;;;8.77;;
54921;SDS011;40824;45.116;21.296;2024-02-26T08:43:30;12.13;;;9.00;;
54921;SDS011;40824;45.116;21.296;2024-02-26T08:45:57;12.90;;;9.88;;
54921;SDS011;40824;45.116;21.296;2024-02-26T08:48:23;12.45;;;9.10;;
54921;SDS011;40824;45.116;21.296;2024-02-26T08:50:49;12.98;;;8.77;;
54921;SDS011;40824;45.116;21.296;2024-02-26T08:53:18;13.63;;;9.32;;
54921;SDS011;40824;45.116;21.296;2024-02-26T08:55:44;11.98;;;8.93;;
54921;SDS011;40824;45.116;21.296;2024-02-26T08:58:10;15.10;;;10.02;;
54921;SDS011;40824;45.116;21.296;2024-02-26T09:00:36;11.40;;;9.02;;
54921;SDS011;40824;45.116;21.296;2024-02-26T09:03:02;11.45;;;8.80;;
54921;SDS011;40824;45.116;21.296;2024-02-26T09:05:28;13.60;;;9.90;;
54921;SDS011;40824;45.116;21.296;2024-02-26T09:07:54;10.77;;;8.95;;
54921;SDS011;40824;45.116;21.296;2024-02-26T09:10:21;10.05;;;9.05;;
54921;SDS011;40824;45.116;21.296;2024-02-26T09:12:47;11.80;;;8.82;;
54921;SDS011;40824;45.116;21.296;2024-02-26T09:15:14;9.85;;;7.72;;
54921;SDS011;40824;45.116;21.296;2024-02-26T09:17:40;10.60;;;7.95;;
54921;SDS011;40824;45.116;21.296;2024-02-26T09:20:07;8.63;;;7.68;;
54921;SDS011;40824;45.116;21.296;2024-02-26T09:22:34;12.93;;;7.47;;
54921;SDS011;40824;45.116;21.296;2024-02-26T09:25:02;13.23;;;7.90;;
54921;SDS011;40824;45.116;21.296;2024-02-26T09:27:29;16.80;;;8.98;;
54921;SDS011;40824;45.116;21.296;2024-02-26T09:29:55;10.13;;;7.70;;
54921;SDS011;40824;45.116;21.296;2024-02-26T09:32:21;9.90;;;7.75;;
54921;SDS011;40824;45.116;21.296;2024-02-26T09:34:50;9.75;;;8.20;;
54921;SDS011;40824;45.116;21.296;2024-02-26T09:37:16;11.70;;;8.35;;
54921;SDS011;40824;45.116;21.296;2024-02-26T09:39:44;10.80;;;8.23;;
54921;SDS011;40824;45.116;21.296;2024-02-26T09:42:11;10.00;;;7.70;;
54921;SDS011;40824;45.116;21.296;2024-02-26T09:44:39;9.85;;;6.82;;
54921;SDS011;40824;45.116;21.296;2024-02-26T09:47:10;7.85;;;6.75;;
54921;SDS011;40824;45.116;21.296;2024-02-26T09:49:40;10.85;;;8.75;;
54921;SDS011;40824;45.116;21.296;2024-02-26T09:52:08;11.25;;;9.90;;
54921;SDS011;40824;45.116;21.296;2024-02-26T09:54:34;11.50;;;9.40;;
54921;SDS011;40824;45.116;21.296;2024-02-26T09:57:02;13.85;;;11.30;;
54921;SDS011;40824;45.116;21.296;2024-02-26T09:59:37;10.52;;;7.32;;
54921;SDS011;40824;45.116;21.296;2024-02-26T10:02:06;8.73;;;7.82;;
54921;SDS011;40824;45.116;21.296;2024-02-26T10:04:35;10.02;;;6.28;;
54921;SDS011;40824;45.116;21.296;2024-02-26T10:07:04;9.60;;;6.60;;
54921;SDS011;40824;45.116;21.296;2024-02-26T10:09:34;7.18;;;5.70;;
54921;SDS011;40824;45.116;21.296;2024-02-26T10:12:00;9.60;;;6.03;;
54921;SDS011;40824;45.116;21.296;2024-02-26T10:14:28;9.45;;;6.50;;
54921;SDS011;40824;45.116;21.296;2024-02-26T10:16:54;8.20;;;6.43;;
54921;SDS011;40824;45.116;21.296;2024-02-26T10:19:27;8.35;;;5.80;;
54921;SDS011;40824;45.116;21.296;2024-02-26T10:21:56;9.60;;;5.82;;
54921;SDS011;40824;45.116;21.296;2024-02-26T10:24:22;10.40;;;6.07;;
54921;SDS011;40824;45.116;21.296;2024-02-26T10:26:49;7.72;;;5.60;;
54921;SDS011;40824;45.116;21.296;2024-02-26T10:29:18;8.93;;;5.07;;
54921;SDS011;40824;45.116;21.296;2024-02-26T10:31:44;7.90;;;4.75;;
54921;SDS011;40824;45.116;21.296;2024-02-26T10:34:10;6.22;;;4.40;;
54921;SDS011;40824;45.116;21.296;2024-02-26T10:36:37;7.15;;;4.38;;
54921;SDS011;40824;45.116;21.296;2024-02-26T10:39:09;8.00;;;4.55;;
54921;SDS011;40824;45.116;21.296;2024-02-26T10:41:35;6.18;;;4.70;;
54921;SDS011;40824;45.116;21.296;2024-02-26T10:44:02;8.25;;;3.70;;
54921;SDS011;40824;45.116;21.296;2024-02-26T10:46:28;8.52;;;4.60;;
54921;SDS011;40824;45.116;21.296;2024-02-26T10:48:54;5.85;;;4.25;;
54921;SDS011;40824;45.116;21.296;2024-02-26T10:51:28;7.28;;;4.65;;
54921;SDS011;40824;45.116;21.296;2024-02-26T10:53:58;6.18;;;3.63;;
54921;SDS011;40824;45.116;21.296;2024-02-26T10:56:27;8.05;;;5.03;;
54921;SDS011;40824;45.116;21.296;2024-02-26T10:58:54;14.48;;;4.40;;
54921;SDS011;40824;45.116;21.296;2024-02-26T11:01:21;6.88;;;5.20;;
54921;SDS011;40824;45.116;21.296;2024-02-26T11:03:50;6.95;;;4.80;;
54921;SDS011;40824;45.116;21.296;2024-02-26T11:06:17;8.88;;;4.57;;
54921;SDS011;40824;45.116;21.296;2024-02-26T11:08:44;7.10;;;4.03;;
54921;SDS011;40824;45.116;21.296;2024-02-26T11:11:10;9.80;;;4.18;;
54921;SDS011;40824;45.116;21.296;2024-02-26T11:13:40;9.82;;;4.25;;
54921;SDS011;40824;45.116;21.296;2024-02-26T11:16:10;8.70;;;3.20;;
54921;SDS011;40824;45.116;21.296;2024-02-26T11:18:36;9.25;;;4.00;;
54921;SDS011;40824;45.116;21.296;2024-02-26T11:21:03;10.65;;;3.85;;
54921;SDS011;40824;45.116;21.296;2024-02-26T11:23:30;6.93;;;3.78;;
54921;SDS011;40824;45.116;21.296;2024-02-26T11:25:59;8.88;;;4.40;;
54921;SDS011;40824;45.116;21.296;2024-02-26T11:28:27;8.52;;;5.15;;
54921;SDS011;40824;45.116;21.296;2024-02-26T11:30:54;6.78;;;4.18;;
54921;SDS011;40824;45.116;21.296;2024-02-26T11:33:24;8.10;;;6.03;;
54921;SDS011;40824;45.116;21.296;2024-02-26T11:35:50;6.70;;;4.47;;
54921;SDS011;40824;45.116;21.296;2024-02-26T11:38:17;6.65;;;4.30;;
54921;SDS011;40824;45.116;21.296;2024-02-26T11:40:46;8.20;;;4.18;;
54921;SDS011;40824;45.116;21.296;2024-02-26T11:43:12;10.55;;;5.05;;
54921;SDS011;40824;45.116;21.296;2024-02-26T11:48:05;10.45;;;4.97;;
54921;SDS011;40824;45.116;21.296;2024-02-26T11:50:43;7.75;;;4.40;;
54921;SDS011;40824;45.116;21.296;2024-02-26T11:55:47;11.98;;;4.38;;
54921;SDS011;40824;45.116;21.296;2024-02-26T11:58:14;8.20;;;3.80;;
54921;SDS011;40824;45.116;21.296;2024-02-26T12:00:40;8.77;;;3.63;;
54921;SDS011;40824;45.116;21.296;2024-02-26T12:03:06;12.13;;;4.30;;
54921;SDS011;40824;45.116;21.296;2024-02-26T12:05:35;8.10;;;4.20;;
54921;SDS011;40824;45.116;21.296;2024-02-26T12:08:05;8.13;;;4.20;;
54921;SDS011;40824;45.116;21.296;2024-02-26T12:10:36;6.40;;;4.05;;
54921;SDS011;40824;45.116;21.296;2024-02-26T12:15:39;8.10;;;4.32;;
54921;SDS011;40824;45.116;21.296;2024-02-26T12:18:06;8.32;;;4.25;;
54921;SDS011;40824;45.116;21.296;2024-02-26T12:20:33;7.20;;;4.30;;
54921;SDS011;40824;45.116;21.296;2024-02-26T12:23:00;8.50;;;4.10;;
54921;SDS011;40824;45.116;21.296;2024-02-26T12:25:28;10.70;;;4.63;;
54921;SDS011;40824;45.116;21.296;2024-02-26T12:27:55;6.53;;;4.07;;
54921;SDS011;40824;45.116;21.296;2024-02-26T12:30:22;10.55;;;3.90;;
54921;SDS011;40824;45.116;21.296;2024-02-26T12:32:48;11.45;;;4.75;;
54921;SDS011;40824;45.116;21.296;2024-02-26T12:35:15;8.93;;;4.20;;
54921;SDS011;40824;45.116;21.296;2024-02-26T12:37:41;9.48;;;4.15;;
54921;SDS011;40824;45.116;21.296;2024-02-26T12:40:08;10.48;;;4.40;;
54921;SDS011;40824;45.116;21.296;2024-02-26T12:42:35;6.85;;;3.72;;
54921;SDS011;40824;45.116;21.296;2024-02-26T12:45:05;10.68;;;5.05;;
54921;SDS011;40824;45.116;21.296;2024-02-26T12:47:41;9.68;;;4.93;;
54921;SDS011;40824;45.116;21.296;2024-02-26T12:50:08;7.45;;;4.18;;
54921;SDS011;40824;45.116;21.296;2024-02-26T12:52:35;10.65;;;5.30;;
54921;SDS011;40824;45.116;21.296;2024-02-26T12:55:02;5.90;;;4.30;;
54921;SDS011;40824;45.116;21.296;2024-02-26T12:57:31;8.05;;;3.92;;
54921;SDS011;40824;45.116;21.296;2024-02-26T13:00:01;10.18;;;4.70;;
54921;SDS011;40824;45.116;21.296;2024-02-26T13:02:29;9.43;;;4.88;;
54921;SDS011;40824;45.116;21.296;2024-02-26T13:04:55;9.88;;;4.60;;
54921;SDS011;40824;45.116;21.296;2024-02-26T13:07:22;8.10;;;4.90;;
54921;SDS011;40824;45.116;21.296;2024-02-26T13:09:51;8.40;;;4.97;;
54921;SDS011;40824;45.116;21.296;2024-02-26T13:12:17;11.57;;;4.53;;
54921;SDS011;40824;45.116;21.296;2024-02-26T13:14:43;8.95;;;5.05;;
54921;SDS011;40824;45.116;21.296;2024-02-26T13:17:09;11.27;;;4.78;;
54921;SDS011;40824;45.116;21.296;2024-02-26T13:19:36;8.80;;;5.15;;
54921;SDS011;40824;45.116;21.296;2024-02-26T13:22:05;9.43;;;4.90;;
54921;SDS011;40824;45.116;21.296;2024-02-26T13:24:35;10.27;;;5.05;;
54921;SDS011;40824;45.116;21.296;2024-02-26T13:27:02;7.15;;;4.53;;
54921;SDS011;40824;45.116;21.296;2024-02-26T13:29:33;8.75;;;5.78;;
54921;SDS011;40824;45.116;21.296;2024-02-26T13:31:59;6.57;;;4.93;;
54921;SDS011;40824;45.116;21.296;2024-02-26T13:34:25;8.73;;;4.32;;
54921;SDS011;40824;45.116;21.296;2024-02-26T13:36:52;8.23;;;4.25;;
54921;SDS011;40824;45.116;21.296;2024-02-26T13:39:22;7.55;;;4.22;;
54921;SDS011;40824;45.116;21.296;2024-02-26T13:41:49;7.22;;;4.07;;
54921;SDS011;40824;45.116;21.296;2024-02-26T13:44:15;7.25;;;4.60;;
54921;SDS011;40824;45.116;21.296;2024-02-26T13:46:44;7.53;;;4.38;;
54921;SDS011;40824;45.116;21.296;2024-02-26T13:49:17;8.18;;;4.90;;
54921;SDS011;40824;45.116;21.296;2024-02-26T13:51:44;8.30;;;4.18;;
54921;SDS011;40824;45.116;21.296;2024-02-26T13:54:10;7.57;;;5.10;;
54921;SDS011;40824;45.116;21.296;2024-02-26T13:56:36;6.47;;;4.20;;
54921;SDS011;40824;45.116;21.296;2024-02-26T13:59:02;11.25;;;5.00;;
54921;SDS011;40824;45.116;21.296;2024-02-26T14:01:28;10.95;;;4.97;;
54921;SDS011;40824;45.116;21.296;2024-02-26T14:03:55;7.70;;;4.90;;
54921;SDS011;40824;45.116;21.296;2024-02-26T14:06:24;8.57;;;5.35;;
54921;SDS011;40824;45.116;21.296;2024-02-26T14:08:50;11.15;;;5.63;;
54921;SDS011;40824;45.116;21.296;2024-02-26T14:11:18;12.40;;;5.60;;
54921;SDS011;40824;45.116;21.296;2024-02-26T14:13:47;8.23;;;5.05;;
54921;SDS011;40824;45.116;21.296;2024-02-26T14:16:13;11.20;;;5.68;;
54921;SDS011;40824;45.116;21.296;2024-02-26T14:18:39;13.27;;;5.85;;
54921;SDS011;40824;45.116;21.296;2024-02-26T14:21:09;8.65;;;4.85;;
54921;SDS011;40824;45.116;21.296;2024-02-26T14:23:35;12.02;;;5.40;;
54921;SDS011;40824;45.116;21.296;2024-02-26T14:26:02;10.85;;;5.30;;